• Join FlightAware (Why Join?)
  • Login
  • US Flag 
07:13PM EST


 

Airport Tracker/Info


-or-


 

Live Flight TrackerFlight Track Log ✈ VH-MKM ✈ 22-Aug-2013 ✈ YGDH / GUH - YSBK / BWU

Flight Track Log - Related Links

Times and Time Zones

All times are in EDT time to prevent confusion due to time zone crossing. See the VH-MKM flight status page for this flight to view local times or setup timezone preferences in your user account.

Time Position Orientation Groundspeed Altitude Reporting Facility
EDT Latitude Longitude Course Direction KTS MPH feet Rate Location/Type
09:29PM -31.0438 150.2673 171° South 5,900  Level Aus ATC (Calculated)
09:30PM -31.1240 150.2835 206° Southwest 5,900 60 Level Aus ATC (Calculated)
09:31PM -31.1240 150.2835 206° Southwest 5,900 60 Level Aus ATC (Calculated)
09:33PM -31.2081 150.3005 170° South  Level FlightAware Approximate
09:34PM -31.2508 150.3091 170° South  Level FlightAware Approximate
09:34PM -31.1262 150.2822 170° South 123 142 6,300  Level Aus ATC (RADAR)
09:34PM -31.1471 150.2866 170° South 128 147 6,600 600 Climbing Aus ATC (RADAR)
09:35PM -31.1803 150.2930 171° South 132 152 7,200 600 Climbing Aus ATC (RADAR)
09:37PM -31.2297 150.3028 170° South 120 138 8,100 600 Climbing Aus ATC (RADAR)
09:37PM -31.2458 150.3060 170° South 118 136 8,400 540 Climbing Aus ATC (RADAR)
09:38PM -31.2795 150.3127 170° South 112 129 9,000 360 Climbing Aus ATC (RADAR)
09:39PM -31.3025 150.3168 171° South 121 139 9,100 180 Climbing Aus ATC (RADAR)
09:40PM -31.3280 150.3218 171° South 134 154 9,300 240 Climbing Aus ATC (RADAR)
09:40PM -31.3616 150.3287 170° South 143 165 9,500 300 Climbing Aus ATC (RADAR)
09:42PM -31.4304 150.3424 170° South 141 162 10,100 180 Climbing Aus ATC (RADAR)
09:43PM -31.4653 150.3484 172° South 149 171 10,000 -60 Descending Aus ATC (RADAR)
09:44PM -31.5035 150.3562 170° South 162 186 10,000  Level Aus ATC (RADAR)
09:44PM -31.5292 150.3615 170° South 159 183 10,000  Level Aus ATC (RADAR)
09:45PM -31.5611 150.3676 171° South 155 178 10,000  Level Aus ATC (RADAR)
09:46PM -31.5823 150.3719 170° South 153 176 10,000  Level Aus ATC (RADAR)
09:47PM -31.6311 150.3815 170° South 152 175 10,000  Level Aus ATC (RADAR)
09:48PM -31.6591 150.3870 170° South 151 174 10,000  Level Aus ATC (RADAR)
09:48PM -31.6945 150.3940 170° South 153 176 10,000  Level Aus ATC (RADAR)
09:49PM -31.7267 150.4010 169° South 153 176 10,000  Level Aus ATC (RADAR)
09:50PM -31.7500 150.4056 171° South 143 165 10,000  Level Aus ATC (RADAR)
09:51PM -31.7827 150.4118 171° South 140 161 10,000  Level Aus ATC (RADAR)
09:52PM -31.8478 150.4248 170° South 143 165 10,000  Level Aus ATC (RADAR)
09:53PM -31.8897 150.4330 170° South 152 175 10,000  Level Aus ATC (RADAR)
09:54PM -31.9208 150.4394 170° South 147 169 10,000  Level Aus ATC (RADAR)
09:55PM -31.9472 150.4447 170° South 142 163 10,000  Level Aus ATC (RADAR)
09:55PM -31.9762 150.4504 171° South 139 160 10,000  Level Aus ATC (RADAR)
09:57PM -32.0454 150.4643 170° South 145 167 10,000  Level Aus ATC (RADAR)
09:58PM -32.0784 150.4706 171° South 142 163 10,000  Level Aus ATC (RADAR)
09:59PM -32.1024 150.4757 170° South 147 169 10,000  Level Aus ATC (RADAR)
09:59PM -32.1374 150.4832 170° South 152 175 10,000  Level Aus ATC (RADAR)
10:00PM -32.1618 150.4884 170° South 151 174 10,000  Level Aus ATC (RADAR)
10:01PM -32.1931 150.4942 171° South 150 173 10,000  Level Aus ATC (RADAR)
10:03PM -32.2681 150.5096 170° South 147 169 10,000  Level Aus ATC (RADAR)
10:03PM -32.3054 150.5169 171° South 146 168 10,000  Level Aus ATC (RADAR)
10:04PM -32.3319 150.5221 171° South 142 163 10,000  Level Aus ATC (RADAR)
10:05PM -32.3553 150.5269 170° South 143 165 10,000  Level Aus ATC (RADAR)
10:05PM -32.3844 150.5325 171° South 139 160 10,000  Level Aus ATC (RADAR)
10:06PM -32.4032 150.5367 169° South 135 155 10,000  Level Aus ATC (RADAR)
10:07PM -32.4258 150.5410 171° South 139 160 10,000  Level Aus ATC (RADAR)
10:08PM -32.4904 150.5543 170° South 135 155 10,000 -60 Level Aus ATC (RADAR)
10:09PM -32.5311 150.5617 171° South 148 170 9,900 -60 Descending Aus ATC (RADAR)
10:10PM -32.5582 150.5677 169° South 151 174 9,900  Level Aus ATC (RADAR)
10:10PM -32.5818 150.5727 170° South 145 167 9,900  Level Aus ATC (RADAR)
10:11PM -32.6125 150.5788 170° South 148 170 9,900  Level Aus ATC (RADAR)
10:12PM -32.6340 150.5830 171° South 154 177 9,900  Level Aus ATC (RADAR)
10:13PM -32.7014 150.5969 170° South 160 184 9,900  Level Aus ATC (RADAR)
10:14PM -32.7401 150.6050 170° South 151 174 9,900  Level Aus ATC (RADAR)
10:15PM -32.7683 150.6097 172° South 148 170 9,900  Level Aus ATC (RADAR)
10:15PM -32.7944 150.6156 169° South 147 169 9,900  Level Aus ATC (RADAR)
10:16PM -32.8254 150.6221 170° South 149 171 9,900  Level Aus ATC (RADAR)
10:18PM -32.9053 150.6377 171° South 152 175 9,900  Level Aus ATC (RADAR)
10:19PM -32.9494 150.6470 170° South 143 165 9,900 -60 Level Aus ATC (RADAR)
10:20PM -32.9746 150.6513 172° South 150 173 9,800 -240 Descending Aus ATC (RADAR)
10:20PM -33.0025 150.6580 169° South 156 180 9,600 -300 Descending Aus ATC (RADAR)
10:21PM -33.0370 150.6647 171° South 164 189 9,400 -360 Descending Aus ATC (RADAR)
10:23PM -33.1019 150.6774 171° South 159 183 8,900 -360 Descending Aus ATC (RADAR)
10:23PM -33.1255 150.6834 168° South 152 175 8,700 -360 Descending Aus ATC (RADAR)
10:24PM -33.1508 150.6878 172° South 153 176 8,500 -480 Descending Aus ATC (RADAR)
10:24PM -33.1773 150.6937 169° South 161 185 8,200 -420 Descending Aus ATC (RADAR)
10:25PM -33.2114 150.7010 170° South 162 186 8,000 -420 Descending Aus ATC (RADAR)
10:26PM -33.2376 150.7059 171° South 160 184 7,700 -480 Descending Aus ATC (RADAR)
10:26PM -33.2746 150.7134 170° South 158 182 7,400 -360 Descending Aus ATC (RADAR)
10:27PM -33.3032 150.7185 172° South 166 191 7,200 -480 Descending Aus ATC (RADAR)
10:28PM -33.3585 150.7302 170° South 173 199 6,600 -540 Descending Aus ATC (RADAR)
10:29PM -33.4069 150.7405 170° South 165 190 6,100 -540 Descending Aus ATC (RADAR)
10:30PM -33.4341 150.7457 171° South 165 190 5,800 -540 Descending Aus ATC (RADAR)
10:31PM -33.4632 150.7517 170° South 170 196 5,500 -540 Descending Aus ATC (RADAR)
10:31PM -33.5012 150.7596 170° South 164 189 5,100 -600 Descending Aus ATC (RADAR)
10:32PM -33.5465 150.7691 170° South 165 190 4,500 -600 Descending Aus ATC (RADAR)
10:33PM -33.5982 150.7798 170° South 162 186 3,900 -600 Descending Aus ATC (RADAR)
10:34PM -33.6400 150.8016 156° South 159 183 3,300 -600 Descending Aus ATC (RADAR)
10:35PM -33.6716 150.8164 159° South 154 177 2,900 -540 Descending Aus ATC (RADAR)
10:36PM -33.6961 150.8309 154° Southeast 151 174 2,600 -300 Descending Aus ATC (RADAR)
10:37PM -33.7255 150.8502 151° Southeast 151 174 2,500 -180 Descending Aus ATC (RADAR)
10:38PM -33.7849 150.8841 155° Southeast 154 177 2,300 -240 Descending Aus ATC (RADAR)
10:39PM -33.8226 150.9067 154° Southeast 160 184 2,000 -240 Descending Aus ATC (RADAR)
10:40PM -33.8427 150.9300 136° Southeast 158 182 2,000 -360 Level Aus ATC (RADAR)
10:40PM -33.8610 150.9536 133° Southeast 162 186 1,600 -480 Descending Aus ATC (RADAR)
10:41PM -33.8797 150.9759 135° Southeast 155 178 1,500 -120 Descending Aus ATC (RADAR)
10:42PM -33.9001 150.9981 138° Southeast 118 136 1,500 -420 Level Aus ATC (RADAR)
10:43PM -33.9334 151.0191 152° Southeast 92 106 600 -540 Descending Aus ATC (RADAR)
10:44PM -33.9297 151.0033 286° West 62 71 300 -60 Descending Aus ATC (RADAR)
11:15PM -33.9210 150.9880 298° West 200  Descending FlightAware
11:16PM -33.9170 150.9820 309° West 92 106 400 780 Climbing FlightAware
11:16PM -33.9120 150.9730 304° West 87 100 700 600 Climbing FlightAware
11:16PM -33.9070 150.9610 297° West 94 108 900 360 Climbing FlightAware
11:17PM -33.9010 150.9510 306° West 105 121 1,000 240 Climbing FlightAware
11:17PM -33.8950 150.9380 299° West 114 131 1,100 480 Climbing FlightAware
11:18PM -33.8910 150.9270 294° West 113 130 1,400 960 Climbing FlightAware
11:18PM -33.8900 150.9230 287° West 106 122 1,500 900 Climbing FlightAware
11:18PM -33.8900 150.9160 270° West 104 120 1,700 900 Climbing FlightAware
11:18PM -33.8900 150.9090 270° West 107 123 1,900 960 Climbing FlightAware
11:18PM -33.8900 150.8930 270° West 104 120 2,300 660 Climbing FlightAware
11:19PM -33.8890 150.8820 276° West 105 121 2,400  Climbing FlightAware
11:19PM -33.8890 150.8650 270° West 117 135 2,300 180 Descending FlightAware
11:20PM -33.8870 150.8440 277° West 111 128 2,600 420 Climbing FlightAware
11:20PM -33.8870 150.8380 270° West 119 137 2,600  Level FlightAware
11:20PM -33.8860 150.8220 274° West 130 150 2,600 300 Level FlightAware
11:21PM -33.8850 150.8140 279° West 117 135 2,800  Climbing FlightAware
11:21PM -33.8850 150.8010 270° West 135 155 2,600 -300 Descending FlightAware
11:21PM -33.8840 150.7850 274° West 127 146 2,600  Level FlightAware
11:22PM -33.8820 150.7670 278° West 115 132 2,600 240 Level FlightAware
11:22PM -33.8820 150.7540 270° West 117 135 2,800 420 Climbing FlightAware
11:22PM -33.8810 150.7410 275° West 125 144 2,900 480 Climbing FlightAware
11:23PM -33.8810 150.7240 270° West 116 133 3,200 420 Climbing FlightAware
11:23PM -33.8820 150.6970 267° West 121 139 3,400 360 Climbing FlightAware
11:24PM -33.8820 150.6920 270° West 122 140 3,500 780 Climbing FlightAware
11:24PM -33.8830 150.6710 267° West 110 127 3,900 540 Climbing FlightAware
11:24PM -33.8830 150.6620 270° West 116 133 3,900 300 Level FlightAware
11:25PM -33.8840 150.6490 265° West 110 127 4,100 480 Climbing FlightAware
11:25PM -33.8830 150.6230 273° West 113 130 4,400 300 Climbing FlightAware
11:26PM -33.8810 150.6140 285° West 115 132 4,400  Level FlightAware
11:26PM -33.8790 150.6050 285° West 114 131 4,400 300 Level FlightAware
11:26PM -33.8760 150.5940 288° West 111 128 4,600 240 Climbing FlightAware
11:27PM -33.8700 150.5700 287° West 113 130 4,700 120 Climbing FlightAware